sensor_id;sensor_type;location;lat;lon;timestamp;pressure;altitude;pressure_sealevel;temperature;humidity
82807;BME280;72563;44.816;20.484;2024-03-02T00:00:23;99762.84;;;10.38;71.59
82807;BME280;72563;44.816;20.484;2024-03-02T00:02:52;99750.25;;;10.28;71.74
82807;BME280;72563;44.816;20.484;2024-03-02T00:05:19;99755.16;;;10.14;72.09
82807;BME280;72563;44.816;20.484;2024-03-02T00:07:47;99761.63;;;10.18;72.54
82807;BME280;72563;44.816;20.484;2024-03-02T00:10:16;99768.38;;;10.29;71.94
82807;BME280;72563;44.816;20.484;2024-03-02T00:12:47;99740.47;;;10.10;71.96
82807;BME280;72563;44.816;20.484;2024-03-02T00:18:07;99777.00;;;10.19;72.53
82807;BME280;72563;44.816;20.484;2024-03-02T00:20:33;99769.41;;;10.16;72.38
82807;BME280;72563;44.816;20.484;2024-03-02T00:23:06;99771.84;;;10.18;72.19
82807;BME280;72563;44.816;20.484;2024-03-02T00:25:43;99776.19;;;10.19;72.56
82807;BME280;72563;44.816;20.484;2024-03-02T00:28:34;99771.25;;;10.41;71.85
82807;BME280;72563;44.816;20.484;2024-03-02T00:31:05;99755.16;;;10.14;72.02
82807;BME280;72563;44.816;20.484;2024-03-02T00:33:35;99776.84;;;10.07;73.05
82807;BME280;72563;44.816;20.484;2024-03-02T00:36:03;99780.50;;;10.28;72.32
82807;BME280;72563;44.816;20.484;2024-03-02T00:38:32;99760.94;;;10.30;71.51
82807;BME280;72563;44.816;20.484;2024-03-02T00:41:04;99775.44;;;10.39;71.85
82807;BME280;72563;44.816;20.484;2024-03-02T00:46:04;99757.44;;;10.12;72.60
82807;BME280;72563;44.816;20.484;2024-03-02T00:48:30;99750.69;;;9.92;73.38
82807;BME280;72563;44.816;20.484;2024-03-02T00:51:02;99756.81;;;10.15;72.95
82807;BME280;72563;44.816;20.484;2024-03-02T00:53:30;99745.50;;;9.99;73.00
82807;BME280;72563;44.816;20.484;2024-03-02T00:55:57;99766.50;;;10.04;73.50
82807;BME280;72563;44.816;20.484;2024-03-02T00:58:22;99764.34;;;10.27;72.46
82807;BME280;72563;44.816;20.484;2024-03-02T01:00:48;99772.44;;;10.32;72.48
82807;BME280;72563;44.816;20.484;2024-03-02T01:03:13;99763.91;;;10.08;72.90
82807;BME280;72563;44.816;20.484;2024-03-02T01:05:42;99769.16;;;10.38;72.48
82807;BME280;72563;44.816;20.484;2024-03-02T01:08:09;99773.97;;;10.50;71.79
82807;BME280;72563;44.816;20.484;2024-03-02T01:10:35;99760.44;;;10.36;72.49
82807;BME280;72563;44.816;20.484;2024-03-02T01:13:00;99747.94;;;9.92;73.80
82807;BME280;72563;44.816;20.484;2024-03-02T01:15:27;99765.09;;;10.44;72.28
82807;BME280;72563;44.816;20.484;2024-03-02T01:17:52;99775.66;;;10.34;72.48
82807;BME280;72563;44.816;20.484;2024-03-02T01:20:18;99765.09;;;10.44;71.82
82807;BME280;72563;44.816;20.484;2024-03-02T01:22:44;99748.03;;;10.22;72.59
82807;BME280;72563;44.816;20.484;2024-03-02T01:25:11;99769.59;;;10.11;73.68
82807;BME280;72563;44.816;20.484;2024-03-02T01:27:37;99768.34;;;10.38;72.49
82807;BME280;72563;44.816;20.484;2024-03-02T01:30:03;99761.78;;;10.22;73.28
82807;BME280;72563;44.816;20.484;2024-03-02T01:32:30;99764.81;;;10.29;72.66
82807;BME280;72563;44.816;20.484;2024-03-02T01:34:58;99750.94;;;10.25;73.10
82807;BME280;72563;44.816;20.484;2024-03-02T01:37:23;99754.28;;;10.31;72.61
82807;BME280;72563;44.816;20.484;2024-03-02T01:39:49;99743.88;;;9.98;73.80
82807;BME280;72563;44.816;20.484;2024-03-02T01:42:14;99760.03;;;10.09;73.39
82807;BME280;72563;44.816;20.484;2024-03-02T01:44:40;99736.03;;;10.26;72.59
82807;BME280;72563;44.816;20.484;2024-03-02T01:47:06;99753.44;;;10.01;73.19
82807;BME280;72563;44.816;20.484;2024-03-02T01:49:32;99731.22;;;10.06;73.08
82807;BME280;72563;44.816;20.484;2024-03-02T01:51:59;99749.31;;;10.24;73.19
82807;BME280;72563;44.816;20.484;2024-03-02T01:54:25;99738.22;;;10.41;72.00
82807;BME280;72563;44.816;20.484;2024-03-02T01:56:50;99737.88;;;10.14;72.82
82807;BME280;72563;44.816;20.484;2024-03-02T01:59:16;99743.22;;;10.10;73.33
82807;BME280;72563;44.816;20.484;2024-03-02T02:01:45;99716.06;;;10.00;72.99
82807;BME280;72563;44.816;20.484;2024-03-02T02:04:12;99741.34;;;9.93;74.20
82807;BME280;72563;44.816;20.484;2024-03-02T02:06:38;99753.41;;;10.10;73.63
82807;BME280;72563;44.816;20.484;2024-03-02T02:09:04;99748.88;;;10.14;73.16
82807;BME280;72563;44.816;20.484;2024-03-02T02:11:34;99733.09;;;9.85;73.97
82807;BME280;72563;44.816;20.484;2024-03-02T02:14:00;99745.31;;;10.04;74.06
82807;BME280;72563;44.816;20.484;2024-03-02T02:16:26;99745.16;;;10.10;73.91
82807;BME280;72563;44.816;20.484;2024-03-02T02:18:51;99745.78;;;10.24;72.82
82807;BME280;72563;44.816;20.484;2024-03-02T02:21:17;99747.19;;;10.30;73.08
82807;BME280;72563;44.816;20.484;2024-03-02T02:23:42;99762.50;;;10.39;72.68
82807;BME280;72563;44.816;20.484;2024-03-02T02:26:12;99756.03;;;10.44;72.41
82807;BME280;72563;44.816;20.484;2024-03-02T02:28:37;99754.03;;;10.24;73.38
82807;BME280;72563;44.816;20.484;2024-03-02T02:31:04;99754.63;;;10.29;73.09
82807;BME280;72563;44.816;20.484;2024-03-02T02:33:30;99731.22;;;10.52;71.94
82807;BME280;72563;44.816;20.484;2024-03-02T02:35:58;99762.84;;;10.67;71.41
82807;BME280;72563;44.816;20.484;2024-03-02T02:38:23;99768.97;;;10.72;71.66
82807;BME280;72563;44.816;20.484;2024-03-02T02:40:49;99742.88;;;10.49;72.02
82807;BME280;72563;44.816;20.484;2024-03-02T02:43:14;99771.63;;;10.60;72.37
82807;BME280;72563;44.816;20.484;2024-03-02T02:45:40;99771.25;;;10.41;72.66
82807;BME280;72563;44.816;20.484;2024-03-02T02:48:05;99777.22;;;10.43;73.39
82807;BME280;72563;44.816;20.484;2024-03-02T02:50:31;99761.88;;;10.63;72.04
82807;BME280;72563;44.816;20.484;2024-03-02T02:52:57;99773.31;;;10.73;72.20
82807;BME280;72563;44.816;20.484;2024-03-02T02:55:22;99771.78;;;10.64;72.17
82807;BME280;72563;44.816;20.484;2024-03-02T02:57:52;99768.16;;;10.43;73.12
82807;BME280;72563;44.816;20.484;2024-03-02T03:00:18;99764.13;;;10.69;72.29
82807;BME280;72563;44.816;20.484;2024-03-02T03:02:48;99770.66;;;10.85;71.64
82807;BME280;72563;44.816;20.484;2024-03-02T03:05:14;99768.81;;;10.40;73.59
82807;BME280;72563;44.816;20.484;2024-03-02T03:07:43;99780.88;;;10.56;73.19
82807;BME280;72563;44.816;20.484;2024-03-02T03:10:13;99786.25;;;10.52;73.27
82807;BME280;72563;44.816;20.484;2024-03-02T03:12:39;99766.50;;;10.50;72.91
82807;BME280;72563;44.816;20.484;2024-03-02T03:15:06;99777.97;;;10.23;74.02
82807;BME280;72563;44.816;20.484;2024-03-02T03:17:33;99765.88;;;10.45;73.31
82807;BME280;72563;44.816;20.484;2024-03-02T03:20:00;99780.22;;;10.59;73.03
82807;BME280;72563;44.816;20.484;2024-03-02T03:22:26;99777.59;;;10.33;74.42
82807;BME280;72563;44.816;20.484;2024-03-02T03:24:52;99777.28;;;10.64;73.05
82807;BME280;72563;44.816;20.484;2024-03-02T03:27:18;99779.91;;;10.60;73.17
82807;BME280;72563;44.816;20.484;2024-03-02T03:29:45;99784.13;;;10.58;73.76
82807;BME280;72563;44.816;20.484;2024-03-02T03:32:12;99775.38;;;10.56;73.62
82807;BME280;72563;44.816;20.484;2024-03-02T03:34:37;99759.81;;;10.60;73.24
82807;BME280;72563;44.816;20.484;2024-03-02T03:37:03;99774.59;;;10.47;74.08
82807;BME280;72563;44.816;20.484;2024-03-02T03:39:37;99781.63;;;10.65;73.74
82807;BME280;72563;44.816;20.484;2024-03-02T03:42:03;99779.56;;;10.24;75.22
82807;BME280;72563;44.816;20.484;2024-03-02T03:44:28;99789.91;;;10.27;75.92
82807;BME280;72563;44.816;20.484;2024-03-02T03:46:54;99781.78;;;10.39;75.83
82807;BME280;72563;44.816;20.484;2024-03-02T03:49:19;99779.81;;;10.48;75.50
82807;BME280;72563;44.816;20.484;2024-03-02T03:51:46;99793.00;;;10.55;75.65
82807;BME280;72563;44.816;20.484;2024-03-02T03:54:11;99787.25;;;10.48;76.16
82807;BME280;72563;44.816;20.484;2024-03-02T03:56:37;99784.50;;;10.48;76.48
82807;BME280;72563;44.816;20.484;2024-03-02T03:59:03;99787.56;;;10.46;76.45
82807;BME280;72563;44.816;20.484;2024-03-02T04:01:30;99782.47;;;10.28;76.82
82807;BME280;72563;44.816;20.484;2024-03-02T04:03:57;99781.84;;;10.22;77.26
82807;BME280;72563;44.816;20.484;2024-03-02T04:06:23;99758.34;;;9.78;78.50
82807;BME280;72563;44.816;20.484;2024-03-02T04:08:48;99785.59;;;10.09;78.78
82807;BME280;72563;44.816;20.484;2024-03-02T04:11:14;99767.56;;;10.29;77.60
82807;BME280;72563;44.816;20.484;2024-03-02T04:13:39;99773.63;;;10.14;77.99
82807;BME280;72563;44.816;20.484;2024-03-02T04:16:06;99769.59;;;10.02;78.39
82807;BME280;72563;44.816;20.484;2024-03-02T04:18:33;99752.97;;;9.90;78.94
82807;BME280;72563;44.816;20.484;2024-03-02T04:20:58;99790.47;;;9.95;79.97
82807;BME280;72563;44.816;20.484;2024-03-02T04:23:25;99791.13;;;9.92;80.05
82807;BME280;72563;44.816;20.484;2024-03-02T04:25:51;99795.84;;;9.83;80.54
82807;BME280;72563;44.816;20.484;2024-03-02T04:28:16;99789.22;;;9.75;81.27
82807;BME280;72563;44.816;20.484;2024-03-02T04:30:42;99785.31;;;9.93;79.75
82807;BME280;72563;44.816;20.484;2024-03-02T04:33:10;99759.66;;;9.64;80.83
82807;BME280;72563;44.816;20.484;2024-03-02T04:35:36;99804.09;;;9.66;81.26
82807;BME280;72563;44.816;20.484;2024-03-02T04:38:02;99789.34;;;9.96;79.97
82807;BME280;72563;44.816;20.484;2024-03-02T04:40:29;99802.59;;;9.94;80.15
82807;BME280;72563;44.816;20.484;2024-03-02T04:42:54;99808.41;;;10.01;80.11
82807;BME280;72563;44.816;20.484;2024-03-02T04:45:20;99790.72;;;9.56;82.00
82807;BME280;72563;44.816;20.484;2024-03-02T04:47:45;99806.84;;;9.57;82.16
82807;BME280;72563;44.816;20.484;2024-03-02T04:50:12;99805.75;;;9.50;82.64
82807;BME280;72563;44.816;20.484;2024-03-02T04:52:38;99802.81;;;9.72;81.93
82807;BME280;72563;44.816;20.484;2024-03-02T04:55:04;99805.41;;;9.77;81.31
82807;BME280;72563;44.816;20.484;2024-03-02T04:57:42;99820.94;;;9.56;81.83
82807;BME280;72563;44.816;20.484;2024-03-02T05:00:09;99806.72;;;9.62;81.40
82807;BME280;72563;44.816;20.484;2024-03-02T05:02:35;99814.78;;;9.59;81.49
82807;BME280;72563;44.816;20.484;2024-03-02T05:05:00;99774.06;;;8.92;83.24
82807;BME280;72563;44.816;20.484;2024-03-02T05:07:26;99818.84;;;9.53;81.59
82807;BME280;72563;44.816;20.484;2024-03-02T05:09:52;99829.50;;;9.54;81.21
82807;BME280;72563;44.816;20.484;2024-03-02T05:12:17;99823.50;;;9.35;81.95
82807;BME280;72563;44.816;20.484;2024-03-02T05:15:02;99819.63;;;9.19;81.64
82807;BME280;72563;44.816;20.484;2024-03-02T05:17:28;99823.84;;;9.42;81.51
82807;BME280;72563;44.816;20.484;2024-03-02T05:19:53;99819.78;;;9.23;82.24
82807;BME280;72563;44.816;20.484;2024-03-02T05:22:20;99820.44;;;9.37;81.83
82807;BME280;72563;44.816;20.484;2024-03-02T05:24:45;99808.66;;;9.36;81.40
82807;BME280;72563;44.816;20.484;2024-03-02T05:27:11;99823.84;;;9.42;81.09
82807;BME280;72563;44.816;20.484;2024-03-02T05:29:37;99820.59;;;9.32;81.45
82807;BME280;72563;44.816;20.484;2024-03-02T05:32:02;99833.53;;;9.31;81.05
82807;BME280;72563;44.816;20.484;2024-03-02T05:34:28;99820.09;;;9.12;81.12
82807;BME280;72563;44.816;20.484;2024-03-02T05:36:55;99806.84;;;8.89;81.83
82807;BME280;72563;44.816;20.484;2024-03-02T05:39:23;99849.38;;;9.51;80.93
82807;BME280;72563;44.816;20.484;2024-03-02T05:41:51;99814.13;;;9.10;80.64
82807;BME280;72563;44.816;20.484;2024-03-02T05:44:16;99843.06;;;9.59;79.73
82807;BME280;72563;44.816;20.484;2024-03-02T05:46:45;99847.13;;;9.45;80.39
82807;BME280;72563;44.816;20.484;2024-03-02T05:49:10;99859.06;;;9.66;80.00
82807;BME280;72563;44.816;20.484;2024-03-02T05:51:36;99860.34;;;9.60;79.70
82807;BME280;72563;44.816;20.484;2024-03-02T05:54:01;99862.78;;;9.61;79.81
82807;BME280;72563;44.816;20.484;2024-03-02T05:56:29;99870.69;;;9.71;79.48
82807;BME280;72563;44.816;20.484;2024-03-02T05:58:54;99878.16;;;9.62;79.93
82807;BME280;72563;44.816;20.484;2024-03-02T06:01:45;99883.78;;;9.57;79.82
82807;BME280;72563;44.816;20.484;2024-03-02T06:04:17;99874.09;;;9.60;79.91
82807;BME280;72563;44.816;20.484;2024-03-02T06:06:45;99855.38;;;9.45;79.76
82807;BME280;72563;44.816;20.484;2024-03-02T06:09:10;99888.97;;;9.67;79.16
82807;BME280;72563;44.816;20.484;2024-03-02T06:11:40;99888.28;;;9.28;80.84
82807;BME280;72563;44.816;20.484;2024-03-02T06:14:07;99874.75;;;9.57;79.60
82807;BME280;72563;44.816;20.484;2024-03-02T06:16:34;99884.28;;;9.51;80.17
82807;BME280;72563;44.816;20.484;2024-03-02T06:19:01;99880.06;;;9.36;80.24
82807;BME280;72563;44.816;20.484;2024-03-02T06:21:27;99882.34;;;9.68;79.17
82807;BME280;72563;44.816;20.484;2024-03-02T06:23:53;99886.22;;;9.76;78.31
82807;BME280;72563;44.816;20.484;2024-03-02T06:26:21;99893.84;;;9.87;77.70
82807;BME280;72563;44.816;20.484;2024-03-02T06:28:47;99891.22;;;9.91;77.50
82807;BME280;72563;44.816;20.484;2024-03-02T06:31:13;99899.16;;;9.92;77.04
82807;BME280;72563;44.816;20.484;2024-03-02T06:33:38;99898.50;;;9.87;77.29
82807;BME280;72563;44.816;20.484;2024-03-02T06:36:05;99910.00;;;9.97;76.59
82807;BME280;72563;44.816;20.484;2024-03-02T06:38:35;99909.31;;;9.92;77.10
82807;BME280;72563;44.816;20.484;2024-03-02T06:41:00;99916.75;;;10.09;76.14
82807;BME280;72563;44.816;20.484;2024-03-02T06:43:26;99914.19;;;10.03;75.91
82807;BME280;72563;44.816;20.484;2024-03-02T06:45:52;99916.16;;;10.12;75.55
82807;BME280;72563;44.816;20.484;2024-03-02T06:48:18;99937.00;;;9.95;76.31
82807;BME280;72563;44.816;20.484;2024-03-02T06:50:49;99922.28;;;10.26;75.36
82807;BME280;72563;44.816;20.484;2024-03-02T06:53:16;99939.41;;;10.31;74.74
82807;BME280;72563;44.816;20.484;2024-03-02T06:55:46;99912.88;;;10.18;74.14
82807;BME280;72563;44.816;20.484;2024-03-02T06:58:13;99934.53;;;10.28;74.39
82807;BME280;72563;44.816;20.484;2024-03-02T07:00:40;99937.28;;;10.37;74.01
82807;BME280;72563;44.816;20.484;2024-03-02T07:03:06;99941.47;;;10.43;74.10
82807;BME280;72563;44.816;20.484;2024-03-02T07:05:32;99936.66;;;10.40;73.63
82807;BME280;72563;44.816;20.484;2024-03-02T07:07:57;99931.97;;;10.32;74.09
82807;BME280;72563;44.816;20.484;2024-03-02T07:10:23;99924.19;;;10.08;74.59
82807;BME280;72563;44.816;20.484;2024-03-02T07:12:49;99948.00;;;10.21;74.86
82807;BME280;72563;44.816;20.484;2024-03-02T07:15:15;99936.97;;;10.38;73.46
82807;BME280;72563;44.816;20.484;2024-03-02T07:17:52;99942.97;;;10.23;74.17
82807;BME280;72563;44.816;20.484;2024-03-02T07:20:18;99947.94;;;10.47;73.90
82807;BME280;72563;44.816;20.484;2024-03-02T07:22:45;99947.00;;;10.43;73.33
82807;BME280;72563;44.816;20.484;2024-03-02T07:25:11;99958.34;;;10.33;73.54
82807;BME280;72563;44.816;20.484;2024-03-02T07:27:37;99935.97;;;10.51;73.09
82807;BME280;72563;44.816;20.484;2024-03-02T07:30:03;99958.25;;;10.75;72.76
82807;BME280;72563;44.816;20.484;2024-03-02T07:32:29;99945.53;;;10.54;73.20
82807;BME280;72563;44.816;20.484;2024-03-02T07:34:54;99949.88;;;10.55;72.70
82807;BME280;72563;44.816;20.484;2024-03-02T07:37:23;99956.41;;;10.88;72.05
82807;BME280;72563;44.816;20.484;2024-03-02T07:39:50;99940.50;;;10.56;72.74
82807;BME280;72563;44.816;20.484;2024-03-02T07:42:16;99963.31;;;11.11;71.03
82807;BME280;72563;44.816;20.484;2024-03-02T07:44:44;99962.69;;;11.35;70.33
82807;BME280;72563;44.816;20.484;2024-03-02T07:47:13;99955.06;;;11.03;70.91
82807;BME280;72563;44.816;20.484;2024-03-02T07:49:38;99938.97;;;10.75;71.09
82807;BME280;72563;44.816;20.484;2024-03-02T07:52:04;99958.41;;;11.17;70.60
82807;BME280;72563;44.816;20.484;2024-03-02T07:54:30;99962.38;;;11.57;69.08
82807;BME280;72563;44.816;20.484;2024-03-02T07:57:00;99960.31;;;11.54;68.65
82807;BME280;72563;44.816;20.484;2024-03-02T07:59:28;99961.19;;;11.46;68.70
82807;BME280;72563;44.816;20.484;2024-03-02T08:01:53;99959.44;;;11.62;68.46
82807;BME280;72563;44.816;20.484;2024-03-02T08:04:20;99974.16;;;11.95;67.27
82807;BME280;72563;44.816;20.484;2024-03-02T08:06:48;99967.03;;;11.94;67.21
82807;BME280;72563;44.816;20.484;2024-03-02T08:09:14;99988.81;;;11.87;67.03
82807;BME280;72563;44.816;20.484;2024-03-02T08:11:42;99987.59;;;11.76;68.22
82807;BME280;72563;44.816;20.484;2024-03-02T08:14:08;99976.31;;;11.90;67.25
82807;BME280;72563;44.816;20.484;2024-03-02T08:16:34;99996.56;;;11.64;68.10
82807;BME280;72563;44.816;20.484;2024-03-02T08:19:01;99978.13;;;11.27;69.54
82807;BME280;72563;44.816;20.484;2024-03-02T08:21:26;99973.38;;;11.36;68.79
82807;BME280;72563;44.816;20.484;2024-03-02T08:23:56;99997.56;;;11.31;69.00
82807;BME280;72563;44.816;20.484;2024-03-02T08:26:21;99968.63;;;11.45;68.96
82807;BME280;72563;44.816;20.484;2024-03-02T08:28:48;99969.44;;;11.46;68.33
82807;BME280;72563;44.816;20.484;2024-03-02T08:31:14;99981.00;;;11.69;67.63
82807;BME280;72563;44.816;20.484;2024-03-02T08:33:40;99957.81;;;11.90;66.90
82807;BME280;72563;44.816;20.484;2024-03-02T08:36:07;99952.22;;;12.19;65.88
82807;BME280;72563;44.816;20.484;2024-03-02T08:38:35;99991.84;;;12.35;65.51
82807;BME280;72563;44.816;20.484;2024-03-02T08:41:01;99991.44;;;12.25;65.45
82807;BME280;72563;44.816;20.484;2024-03-02T08:43:26;99975.34;;;12.47;65.03
82807;BME280;72563;44.816;20.484;2024-03-02T08:45:54;99981.97;;;12.46;64.50
82807;BME280;72563;44.816;20.484;2024-03-02T08:48:21;99973.53;;;12.31;64.58
82807;BME280;72563;44.816;20.484;2024-03-02T08:50:47;99977.66;;;12.58;64.29
82807;BME280;72563;44.816;20.484;2024-03-02T08:53:14;99991.22;;;12.95;63.15
82807;BME280;72563;44.816;20.484;2024-03-02T08:55:47;99986.09;;;13.18;62.65
82807;BME280;72563;44.816;20.484;2024-03-02T08:58:12;99968.25;;;13.27;61.95
82807;BME280;72563;44.816;20.484;2024-03-02T09:00:42;99971.19;;;12.86;63.29
82807;BME280;72563;44.816;20.484;2024-03-02T09:03:08;99992.63;;;12.69;63.18
82807;BME280;72563;44.816;20.484;2024-03-02T09:05:33;99982.72;;;13.00;62.74
82807;BME280;72563;44.816;20.484;2024-03-02T09:07:59;99995.09;;;13.27;62.20
82807;BME280;72563;44.816;20.484;2024-03-02T09:10:25;99990.81;;;13.17;62.48
82807;BME280;72563;44.816;20.484;2024-03-02T09:12:50;100000.03;;;13.21;62.82
82807;BME280;72563;44.816;20.484;2024-03-02T09:15:16;99966.38;;;13.07;62.01
82807;BME280;72563;44.816;20.484;2024-03-02T09:17:41;100009.94;;;13.22;62.35
82807;BME280;72563;44.816;20.484;2024-03-02T09:20:07;99989.03;;;12.89;62.53
82807;BME280;72563;44.816;20.484;2024-03-02T09:22:33;100007.19;;;13.22;62.39
82807;BME280;72563;44.816;20.484;2024-03-02T09:24:59;99980.81;;;13.13;62.60
82807;BME280;72563;44.816;20.484;2024-03-02T09:27:25;100006.38;;;13.70;61.56
82807;BME280;72563;44.816;20.484;2024-03-02T09:29:56;100003.97;;;13.57;61.62
82807;BME280;72563;44.816;20.484;2024-03-02T09:32:29;99994.84;;;13.32;61.87
82807;BME280;72563;44.816;20.484;2024-03-02T09:34:55;100008.78;;;13.23;62.32
82807;BME280;72563;44.816;20.484;2024-03-02T09:37:21;99994.63;;;13.37;61.76
82807;BME280;72563;44.816;20.484;2024-03-02T09:39:47;100010.16;;;13.29;62.27
82807;BME280;72563;44.816;20.484;2024-03-02T09:42:13;99989.22;;;13.53;62.01
82807;BME280;72563;44.816;20.484;2024-03-02T09:44:39;99978.69;;;13.70;61.12
82807;BME280;72563;44.816;20.484;2024-03-02T09:47:06;99982.34;;;14.10;59.68
82807;BME280;72563;44.816;20.484;2024-03-02T09:49:32;100001.91;;;14.18;59.73
82807;BME280;72563;44.816;20.484;2024-03-02T09:52:01;99991.44;;;13.99;60.04
82807;BME280;72563;44.816;20.484;2024-03-02T09:54:28;99997.38;;;17.23;57.63
82807;BME280;72563;44.816;20.484;2024-03-02T09:56:54;99989.75;;;19.21;52.25
82807;BME280;72563;44.816;20.484;2024-03-02T09:59:20;99976.88;;;19.53;53.02
82807;BME280;72563;44.816;20.484;2024-03-02T10:01:59;99982.06;;;19.55;50.69
82807;BME280;72563;44.816;20.484;2024-03-02T10:04:26;99958.91;;;21.26;45.17
82807;BME280;72563;44.816;20.484;2024-03-02T10:07:15;99980.91;;;21.70;45.68
82807;BME280;72563;44.816;20.484;2024-03-02T10:09:43;99986.91;;;21.40;42.41
82807;BME280;72563;44.816;20.484;2024-03-02T10:12:11;99996.13;;;21.90;43.14
82807;BME280;72563;44.816;20.484;2024-03-02T10:14:38;99987.88;;;22.66;41.28
82807;BME280;72563;44.816;20.484;2024-03-02T10:17:08;99972.06;;;23.00;40.30
82807;BME280;72563;44.816;20.484;2024-03-02T10:19:35;99952.06;;;21.87;39.13
82807;BME280;72563;44.816;20.484;2024-03-02T10:22:03;99972.38;;;22.37;39.76
82807;BME280;72563;44.816;20.484;2024-03-02T10:24:42;99987.16;;;22.45;40.45
82807;BME280;72563;44.816;20.484;2024-03-02T10:27:16;99983.28;;;21.75;42.31
82807;BME280;72563;44.816;20.484;2024-03-02T10:29:46;99970.94;;;22.87;40.30
82807;BME280;72563;44.816;20.484;2024-03-02T10:32:13;99969.50;;;22.51;41.53
82807;BME280;72563;44.816;20.484;2024-03-02T10:34:44;99922.09;;;21.49;38.97
82807;BME280;72563;44.816;20.484;2024-03-02T10:37:11;99981.78;;;22.85;38.21
82807;BME280;72563;44.816;20.484;2024-03-02T10:39:37;99957.19;;;23.03;38.25
82807;BME280;72563;44.816;20.484;2024-03-02T10:42:06;99976.44;;;22.08;38.10
82807;BME280;72563;44.816;20.484;2024-03-02T10:44:32;99973.69;;;21.80;39.29
82807;BME280;72563;44.816;20.484;2024-03-02T10:47:05;99962.88;;;22.96;38.53
82807;BME280;72563;44.816;20.484;2024-03-02T10:49:32;99976.28;;;22.57;36.60
82807;BME280;72563;44.816;20.484;2024-03-02T10:52:01;99952.75;;;22.30;39.92
82807;BME280;72563;44.816;20.484;2024-03-02T10:54:27;99948.00;;;20.69;39.82
82807;BME280;72563;44.816;20.484;2024-03-02T10:57:01;99966.09;;;19.52;45.20
82807;BME280;72563;44.816;20.484;2024-03-02T10:59:35;99972.09;;;21.47;41.07
82807;BME280;72563;44.816;20.484;2024-03-02T11:02:03;99937.19;;;22.11;38.42
82807;BME280;72563;44.816;20.484;2024-03-02T11:04:30;99949.69;;;22.83;38.72
82807;BME280;72563;44.816;20.484;2024-03-02T11:07:02;99925.00;;;23.19;36.98
82807;BME280;72563;44.816;20.484;2024-03-02T11:09:30;99935.09;;;23.13;36.96
82807;BME280;72563;44.816;20.484;2024-03-02T11:12:19;99960.13;;;23.44;36.76
82807;BME280;72563;44.816;20.484;2024-03-02T11:14:48;99963.63;;;22.14;38.43
82807;BME280;72563;44.816;20.484;2024-03-02T11:17:17;99954.44;;;22.93;36.03
82807;BME280;72563;44.816;20.484;2024-03-02T11:19:44;99941.19;;;23.92;34.50
82807;BME280;72563;44.816;20.484;2024-03-02T11:22:12;99959.31;;;23.88;36.54
82807;BME280;72563;44.816;20.484;2024-03-02T11:24:37;99953.72;;;22.85;35.78
82807;BME280;72563;44.816;20.484;2024-03-02T11:27:05;99958.66;;;23.73;36.52
82807;BME280;72563;44.816;20.484;2024-03-02T11:32:06;99964.38;;;23.63;36.98
82807;BME280;72563;44.816;20.484;2024-03-02T11:34:41;99956.63;;;24.18;35.36
82807;BME280;72563;44.816;20.484;2024-03-02T11:37:11;99941.16;;;23.96;35.27
82807;BME280;72563;44.816;20.484;2024-03-02T11:39:38;99927.25;;;22.86;37.61
82807;BME280;72563;44.816;20.484;2024-03-02T11:42:07;99951.81;;;23.27;36.76
82807;BME280;72563;44.816;20.484;2024-03-02T11:44:37;99957.44;;;23.27;36.21
82807;BME280;72563;44.816;20.484;2024-03-02T11:47:07;99958.19;;;22.76;37.52
82807;BME280;72563;44.816;20.484;2024-03-02T11:49:39;99959.69;;;22.94;36.27
82807;BME280;72563;44.816;20.484;2024-03-02T11:52:07;99948.72;;;23.65;36.50
82807;BME280;72563;44.816;20.484;2024-03-02T11:54:33;99948.09;;;23.84;35.43
82807;BME280;72563;44.816;20.484;2024-03-02T11:57:05;99941.69;;;21.28;38.23
82807;BME280;72563;44.816;20.484;2024-03-02T11:59:31;99953.16;;;19.30;43.13
82807;BME280;72563;44.816;20.484;2024-03-02T12:01:58;99938.97;;;19.05;45.11
82807;BME280;72563;44.816;20.484;2024-03-02T12:04:25;99939.97;;;18.46;45.18
82807;BME280;72563;44.816;20.484;2024-03-02T12:06:59;99940.72;;;20.43;43.47
82807;BME280;72563;44.816;20.484;2024-03-02T12:09:29;99940.00;;;20.78;41.48
82807;BME280;72563;44.816;20.484;2024-03-02T12:12:05;99932.69;;;22.32;38.61
82807;BME280;72563;44.816;20.484;2024-03-02T12:14:32;99943.53;;;23.05;36.31
82807;BME280;72563;44.816;20.484;2024-03-02T12:16:58;99914.59;;;23.16;36.68
82807;BME280;72563;44.816;20.484;2024-03-02T12:19:27;99941.59;;;22.16;39.29
82807;BME280;72563;44.816;20.484;2024-03-02T12:21:58;99921.81;;;22.44;38.41
82807;BME280;72563;44.816;20.484;2024-03-02T12:24:26;99942.56;;;23.30;36.96
82807;BME280;72563;44.816;20.484;2024-03-02T12:26:53;99940.78;;;23.53;36.40
82807;BME280;72563;44.816;20.484;2024-03-02T12:29:20;99942.69;;;22.43;37.68
82807;BME280;72563;44.816;20.484;2024-03-02T12:31:50;99915.50;;;20.32;41.30
82807;BME280;72563;44.816;20.484;2024-03-02T12:34:19;99934.97;;;20.15;41.42
82807;BME280;72563;44.816;20.484;2024-03-02T12:36:47;99927.69;;;21.42;40.89
82807;BME280;72563;44.816;20.484;2024-03-02T12:39:18;99928.41;;;20.72;39.21
82807;BME280;72563;44.816;20.484;2024-03-02T12:41:45;99904.50;;;19.85;41.57
82807;BME280;72563;44.816;20.484;2024-03-02T12:44:11;99915.00;;;18.97;43.46
82807;BME280;72563;44.816;20.484;2024-03-02T12:46:37;99899.50;;;18.30;44.42
82807;BME280;72563;44.816;20.484;2024-03-02T12:49:11;99927.13;;;19.69;44.85
82807;BME280;72563;44.816;20.484;2024-03-02T12:51:41;99920.06;;;21.46;41.29
82807;BME280;72563;44.816;20.484;2024-03-02T12:54:08;99922.38;;;22.14;40.16
82807;BME280;72563;44.816;20.484;2024-03-02T12:56:38;99935.03;;;22.58;39.36
82807;BME280;72563;44.816;20.484;2024-03-02T12:59:04;99934.09;;;21.18;40.59
82807;BME280;72563;44.816;20.484;2024-03-02T13:01:31;99940.38;;;20.69;42.73